createdAt,value
2022-12-22T00:00:20.741Z,82.04
2022-12-22T00:03:32.128Z,80.96
2022-12-22T00:06:18.621Z,80.58
2022-12-22T00:09:05.953Z,81.13
2022-12-22T00:11:52.326Z,81.98
2022-12-22T00:14:39.385Z,81.80
2022-12-22T00:17:42.056Z,81.75
2022-12-22T00:20:39.151Z,80.62
2022-12-22T00:23:27.633Z,80.50
2022-12-22T00:26:16.080Z,81.02
2022-12-22T00:29:02.658Z,80.83
2022-12-22T00:31:49.353Z,80.93
2022-12-22T00:34:40.398Z,82.46
2022-12-22T00:37:35.914Z,81.96
2022-12-22T00:40:38.773Z,82.48
2022-12-22T00:43:25.573Z,82.55
2022-12-22T00:46:12.483Z,83.07
2022-12-22T00:49:01.821Z,81.98
2022-12-22T00:51:49.704Z,81.95
2022-12-22T00:54:37.731Z,82.54
2022-12-22T00:57:23.987Z,82.62
2022-12-22T01:00:12.711Z,82.05
2022-12-22T01:02:59.271Z,82.32
2022-12-22T01:05:46.275Z,82.16
2022-12-22T01:08:32.678Z,82.42
2022-12-22T01:11:19.134Z,82.32
2022-12-22T01:14:05.297Z,81.53
2022-12-22T01:16:51.950Z,80.66
2022-12-22T01:19:37.819Z,80.18
2022-12-22T01:22:34.587Z,80.58
2022-12-22T01:25:20.855Z,80.59
2022-12-22T01:28:07.625Z,80.24
2022-12-22T01:30:54.641Z,80.39
2022-12-22T01:33:59.542Z,81.08
2022-12-22T01:36:45.854Z,80.62
2022-12-22T01:39:32.459Z,80.91
2022-12-22T01:42:18.717Z,80.79
2022-12-22T01:45:05.251Z,81.38
2022-12-22T01:47:53.176Z,81.31
2022-12-22T01:50:50.783Z,81.51
2022-12-22T01:53:43.735Z,82.17
2022-12-22T01:56:30.964Z,80.69
2022-12-22T01:59:22.329Z,81.10
2022-12-22T02:02:09.062Z,81.37
2022-12-22T02:05:02.190Z,81.54
2022-12-22T02:08:14.120Z,81.47
2022-12-22T02:11:13.750Z,81.78
2022-12-22T02:14:17.167Z,81.92
2022-12-22T02:17:50.706Z,81.27
2022-12-22T02:20:46.072Z,81.78
2022-12-22T02:23:43.229Z,81.86
2022-12-22T02:26:45.766Z,81.68
2022-12-22T02:29:37.010Z,81.95
2022-12-22T02:32:25.185Z,81.77
2022-12-22T02:35:11.499Z,82.63
2022-12-22T02:38:39.902Z,82.77
2022-12-22T02:41:55.011Z,82.68
2022-12-22T02:45:07.993Z,83.20
2022-12-22T02:48:28.435Z,83.00
2022-12-22T02:51:30.056Z,82.89
2022-12-22T02:54:16.612Z,83.32
2022-12-22T02:57:04.800Z,82.82
2022-12-22T02:59:51.185Z,82.43
2022-12-22T03:02:37.971Z,82.80
2022-12-22T03:05:24.575Z,82.50
2022-12-22T03:08:11.324Z,82.08
2022-12-22T03:10:57.719Z,82.26
2022-12-22T03:13:44.420Z,81.89
2022-12-22T03:16:30.485Z,82.51
2022-12-22T03:19:17.024Z,83.02
2022-12-22T03:22:03.343Z,81.77
2022-12-22T03:24:49.916Z,82.50
2022-12-22T03:27:17.445Z,83.50
2022-12-22T03:29:45.450Z,83.41
2022-12-22T03:32:13.024Z,82.01
2022-12-22T03:34:40.890Z,81.04
2022-12-22T03:37:08.435Z,80.41
2022-12-22T03:39:36.432Z,80.19
2022-12-22T03:42:22.808Z,80.14
2022-12-22T03:45:09.452Z,80.17
2022-12-22T03:47:36.975Z,80.52
2022-12-22T03:50:05.386Z,81.14
2022-12-22T03:52:32.930Z,80.99
2022-12-22T03:55:00.821Z,81.64
2022-12-22T03:57:28.403Z,81.98
2022-12-22T03:59:56.436Z,81.78
2022-12-22T04:02:24.093Z,82.33
2022-12-22T04:04:51.972Z,82.54
2022-12-22T04:07:19.567Z,82.02
2022-12-22T04:10:05.885Z,82.91
2022-12-22T04:12:51.971Z,82.87
2022-12-22T04:15:20.384Z,83.18
2022-12-22T04:17:47.930Z,83.17
2022-12-22T04:20:15.901Z,83.22
2022-12-22T04:22:43.436Z,83.52
2022-12-22T04:25:11.924Z,83.39
2022-12-22T04:27:40.131Z,83.46
2022-12-22T04:30:09.218Z,83.61
2022-12-22T04:32:36.878Z,83.04
2022-12-22T04:35:06.047Z,83.57
2022-12-22T04:37:33.954Z,82.89
2022-12-22T04:40:01.874Z,83.25
2022-12-22T04:42:29.741Z,83.60
2022-12-22T04:44:57.574Z,83.68
2022-12-22T04:47:25.231Z,83.60
2022-12-22T04:49:55.696Z,83.93
2022-12-22T04:52:23.452Z,83.15
2022-12-22T04:54:51.297Z,83.85
2022-12-22T04:57:19.194Z,83.42
2022-12-22T04:59:47.314Z,83.50
2022-12-22T05:02:15.593Z,83.27
2022-12-22T05:04:43.642Z,82.99
2022-12-22T05:07:11.355Z,82.58
2022-12-22T05:09:40.710Z,82.98
2022-12-22T05:12:26.956Z,82.57
2022-12-22T05:14:54.864Z,82.39
2022-12-22T05:17:22.567Z,82.54
2022-12-22T05:19:50.468Z,82.75
2022-12-22T05:22:18.064Z,83.28
2022-12-22T05:24:45.879Z,83.41
2022-12-22T05:27:13.556Z,82.47
2022-12-22T05:29:41.522Z,83.37
2022-12-22T05:32:09.095Z,82.66
2022-12-22T05:34:37.058Z,83.52
2022-12-22T05:37:04.705Z,82.75
2022-12-22T05:39:32.761Z,83.23
2022-12-22T05:42:00.498Z,83.51
2022-12-22T05:44:28.373Z,83.01
2022-12-22T05:46:55.972Z,83.24
2022-12-22T05:49:23.978Z,82.25
2022-12-22T05:51:54.061Z,81.67
2022-12-22T05:54:21.987Z,81.11
2022-12-22T05:56:49.534Z,81.15
2022-12-22T05:59:17.410Z,81.21
2022-12-22T06:01:45.048Z,80.69
2022-12-22T06:04:13.194Z,81.78
2022-12-22T06:06:40.749Z,81.48
2022-12-22T06:09:08.627Z,82.10
2022-12-22T06:11:36.139Z,82.48
2022-12-22T06:14:04.322Z,82.09
2022-12-22T06:16:32.015Z,82.34
2022-12-22T06:19:00.012Z,82.85
2022-12-22T06:21:27.664Z,82.57
2022-12-22T06:23:55.739Z,83.30
2022-12-22T06:26:23.399Z,83.35
2022-12-22T06:28:51.325Z,83.01
2022-12-22T06:31:18.978Z,82.91
2022-12-22T06:33:47.918Z,82.67
2022-12-22T06:36:15.511Z,81.77
2022-12-22T06:38:43.380Z,81.61
2022-12-22T06:41:10.943Z,82.41
2022-12-22T06:43:38.887Z,81.99
2022-12-22T06:46:06.478Z,82.01
2022-12-22T06:48:34.572Z,81.07
2022-12-22T06:51:02.314Z,79.47
2022-12-22T06:53:30.235Z,80.49
2022-12-22T06:55:57.837Z,81.12
2022-12-22T06:58:25.987Z,81.01
2022-12-22T07:00:56.799Z,81.42
2022-12-22T07:03:24.884Z,80.83
2022-12-22T07:05:52.539Z,80.98
2022-12-22T07:08:20.419Z,81.43
2022-12-22T07:11:00.313Z,81.22
2022-12-22T07:13:37.199Z,81.63
2022-12-22T07:16:07.588Z,81.05
2022-12-22T07:18:38.936Z,80.95
2022-12-22T07:21:11.380Z,80.84
2022-12-22T07:23:40.501Z,80.43
2022-12-22T07:26:10.771Z,79.77
2022-12-22T07:28:41.252Z,80.52
2022-12-22T07:31:10.696Z,80.86
2022-12-22T07:33:39.597Z,80.24
2022-12-22T07:36:20.317Z,80.42
2022-12-22T07:38:51.560Z,81.30
2022-12-22T07:41:58.916Z,80.94
2022-12-22T07:44:35.928Z,81.05
2022-12-22T07:47:03.756Z,80.94
2022-12-22T07:49:49.999Z,80.85
2022-12-22T07:52:17.657Z,81.14
2022-12-22T07:54:45.712Z,80.80
2022-12-22T07:57:13.498Z,80.52
2022-12-22T07:59:41.460Z,81.60
2022-12-22T08:02:12.561Z,81.14
2022-12-22T08:04:40.853Z,81.99
2022-12-22T08:07:08.606Z,81.84
2022-12-22T08:09:36.596Z,82.04
2022-12-22T08:12:04.583Z,82.15
2022-12-22T08:14:32.453Z,81.34
2022-12-22T08:17:00.001Z,81.61
2022-12-22T08:19:28.027Z,81.11
2022-12-22T08:21:55.726Z,80.73
2022-12-22T08:24:23.632Z,80.99
2022-12-22T08:26:55.269Z,80.79
2022-12-22T08:29:42.853Z,81.22
2022-12-22T08:32:13.066Z,81.22
2022-12-22T08:34:41.422Z,80.39
2022-12-22T08:37:16.747Z,80.62
2022-12-22T08:39:50.393Z,80.55
2022-12-22T08:42:20.283Z,80.45
2022-12-22T08:44:53.337Z,81.00
2022-12-22T08:47:22.273Z,80.47
2022-12-22T08:49:50.780Z,80.19
2022-12-22T08:52:19.386Z,80.26
2022-12-22T08:54:47.621Z,80.24
2022-12-22T08:57:15.260Z,80.33
2022-12-22T08:59:43.178Z,80.01
2022-12-22T09:02:10.823Z,80.49
2022-12-22T09:04:38.828Z,80.28
2022-12-22T09:07:06.425Z,80.36
2022-12-22T09:09:35.411Z,80.52
2022-12-22T09:12:04.157Z,81.14
2022-12-22T09:14:32.891Z,80.55
2022-12-22T09:17:00.877Z,80.64
2022-12-22T09:19:28.895Z,80.41
2022-12-22T09:21:56.417Z,80.51
2022-12-22T09:24:24.281Z,80.68
2022-12-22T09:26:51.813Z,79.62
2022-12-22T09:29:19.970Z,79.58
2022-12-22T09:31:47.591Z,79.86
2022-12-22T09:34:18.446Z,79.87
2022-12-22T09:36:47.604Z,80.54
2022-12-22T09:39:16.231Z,80.75
2022-12-22T09:41:54.890Z,80.64
2022-12-22T09:44:44.953Z,81.10
2022-12-22T09:47:37.942Z,81.25
2022-12-22T09:50:11.098Z,81.19
2022-12-22T09:52:46.576Z,81.05
2022-12-22T09:55:44.576Z,82.24
2022-12-22T09:58:27.934Z,81.50
2022-12-22T10:01:34.885Z,82.11
2022-12-22T10:04:48.098Z,81.78
2022-12-22T10:07:33.022Z,81.73
2022-12-22T10:10:27.716Z,81.75
2022-12-22T10:12:59.483Z,80.51
2022-12-22T10:15:28.020Z,80.81
2022-12-22T10:18:20.406Z,80.65
2022-12-22T10:21:06.719Z,80.72
2022-12-22T10:23:45.876Z,81.07
2022-12-22T10:26:29.127Z,80.45
2022-12-22T10:29:18.061Z,80.66
2022-12-22T10:32:04.191Z,79.65
2022-12-22T10:34:32.747Z,79.83
2022-12-22T10:37:03.781Z,79.39
2022-12-22T10:39:35.626Z,79.24
2022-12-22T10:42:14.240Z,78.60
2022-12-22T10:44:48.287Z,78.29
2022-12-22T10:47:20.652Z,77.70
2022-12-22T10:52:31.832Z,76.76
2022-12-22T10:55:26.187Z,76.53
2022-12-22T10:58:16.184Z,76.00
2022-12-22T11:00:47.670Z,76.11
2022-12-22T11:03:31.083Z,75.38
2022-12-22T11:06:00.999Z,75.33
2022-12-22T11:08:30.688Z,74.66
2022-12-22T11:11:45.085Z,74.69
2022-12-22T11:14:34.042Z,74.68
2022-12-22T11:17:35.067Z,74.85
2022-12-22T11:20:44.575Z,74.71
2022-12-22T11:23:18.448Z,75.33
2022-12-22T11:25:53.070Z,75.91
2022-12-22T11:28:48.379Z,75.53
2022-12-22T11:31:24.346Z,75.67
2022-12-22T11:34:05.285Z,75.02
2022-12-22T11:37:19.406Z,74.83
2022-12-22T11:40:02.073Z,74.53
2022-12-22T11:43:06.462Z,74.29
2022-12-22T11:45:43.556Z,74.79
2022-12-22T11:48:29.853Z,74.55
2022-12-22T11:51:27.714Z,74.60
2022-12-22T11:54:47.285Z,74.91
2022-12-22T11:57:27.610Z,74.71
2022-12-22T12:00:15.862Z,75.00
2022-12-22T12:03:14.539Z,74.83
2022-12-22T12:06:19.069Z,74.45
2022-12-22T12:09:21.936Z,73.97
2022-12-22T12:12:00.458Z,73.99
2022-12-22T12:14:37.699Z,73.98
2022-12-22T12:17:28.883Z,73.90
2022-12-22T12:20:16.346Z,74.11
2022-12-22T12:23:14.093Z,73.68
2022-12-22T12:25:53.025Z,73.70
2022-12-22T12:29:09.802Z,74.07
2022-12-22T12:31:56.641Z,74.26
2022-12-22T12:34:25.643Z,73.94
2022-12-22T12:37:08.837Z,73.96
2022-12-22T12:39:57.462Z,74.26
2022-12-22T12:42:42.095Z,74.31
2022-12-22T12:45:43.869Z,74.29
2022-12-22T12:48:21.028Z,73.58
2022-12-22T12:50:55.413Z,73.30
2022-12-22T12:53:26.361Z,73.48
2022-12-22T12:56:00.016Z,73.97
2022-12-22T12:58:39.570Z,74.16
2022-12-22T13:01:13.367Z,74.41
2022-12-22T13:06:55.908Z,74.88
2022-12-22T13:09:49.896Z,74.79
2022-12-22T13:12:38.468Z,74.88
2022-12-22T13:15:30.503Z,75.05
2022-12-22T13:17:59.444Z,74.81
2022-12-22T13:20:35.566Z,74.80
2022-12-22T13:23:12.509Z,75.17
2022-12-22T13:25:58.818Z,75.40
2022-12-22T13:28:28.088Z,75.35
2022-12-22T13:31:20.185Z,74.96
2022-12-22T13:34:08.410Z,75.04
2022-12-22T13:36:37.516Z,74.88
2022-12-22T13:39:15.477Z,74.43
2022-12-22T13:41:48.481Z,74.57
2022-12-22T13:44:24.581Z,74.62
2022-12-22T13:46:53.919Z,74.77
2022-12-22T13:49:51.645Z,74.53
2022-12-22T13:52:17.444Z,74.60
2022-12-22T13:54:46.735Z,74.73
2022-12-22T13:57:22.769Z,74.56
2022-12-22T13:59:51.945Z,74.59
2022-12-22T14:02:21.596Z,74.61
2022-12-22T14:05:13.170Z,74.36
2022-12-22T14:08:05.007Z,74.39
2022-12-22T14:10:35.792Z,74.37
2022-12-22T14:13:18.385Z,74.58
2022-12-22T14:15:47.328Z,74.63
2022-12-22T14:18:18.051Z,74.85
2022-12-22T14:21:04.590Z,74.76
2022-12-22T14:23:41.917Z,74.60
2022-12-22T14:26:17.776Z,74.47
2022-12-22T14:28:53.496Z,74.65
2022-12-22T14:31:21.078Z,74.83
2022-12-22T14:34:05.327Z,75.06
2022-12-22T14:36:40.633Z,75.46
2022-12-22T14:39:10.915Z,75.62
2022-12-22T14:42:05.164Z,75.92
2022-12-22T14:44:42.348Z,76.01
2022-12-22T14:47:15.099Z,76.79
2022-12-22T14:49:52.151Z,76.83
2022-12-22T14:52:45.114Z,77.14
2022-12-22T14:55:48.719Z,77.11
2022-12-22T14:58:29.609Z,77.11
2022-12-22T15:01:30.645Z,77.41
2022-12-22T15:04:05.102Z,77.44
2022-12-22T15:06:37.720Z,77.63
2022-12-22T15:09:06.594Z,77.71
2022-12-22T15:11:37.374Z,77.75
2022-12-22T15:14:05.289Z,77.79
2022-12-22T15:16:33.147Z,77.69
2022-12-22T15:19:00.712Z,77.82
2022-12-22T15:21:28.559Z,77.94
2022-12-22T15:23:56.106Z,77.89
2022-12-22T15:26:23.879Z,77.86
2022-12-22T15:28:51.435Z,78.15
2022-12-22T15:31:19.504Z,78.13
2022-12-22T15:33:47.143Z,78.36
2022-12-22T15:36:15.356Z,78.32
2022-12-22T15:38:43.400Z,78.68
2022-12-22T15:41:11.182Z,78.98
2022-12-22T15:43:57.433Z,79.06
2022-12-22T15:46:26.146Z,79.53
2022-12-22T15:48:53.704Z,79.75
2022-12-22T15:51:26.813Z,79.71
2022-12-22T15:53:57.099Z,80.07
2022-12-22T15:56:28.642Z,80.24
2022-12-22T15:58:56.973Z,80.64
2022-12-22T16:01:24.862Z,80.57
2022-12-22T16:03:52.623Z,80.91
2022-12-22T16:06:21.463Z,81.05
2022-12-22T16:08:53.374Z,81.20
2022-12-22T16:11:21.443Z,81.59
2022-12-22T16:13:51.070Z,81.86
2022-12-22T16:16:19.230Z,81.99
2022-12-22T16:18:46.775Z,81.93
2022-12-22T16:21:21.027Z,82.41
2022-12-22T16:23:50.578Z,82.55
2022-12-22T16:26:21.340Z,83.08
2022-12-22T16:28:49.391Z,83.05
2022-12-22T16:31:27.054Z,83.75
2022-12-22T16:33:54.717Z,84.03
2022-12-22T16:36:22.531Z,83.78
2022-12-22T16:38:50.089Z,83.83
2022-12-22T16:41:25.773Z,84.46
2022-12-22T16:46:40.834Z,85.41
2022-12-22T16:49:09.494Z,86.72
2022-12-22T16:51:47.561Z,87.33
2022-12-22T16:54:15.644Z,87.98
2022-12-22T16:56:47.120Z,88.25
2022-12-22T16:59:15.048Z,88.53
2022-12-22T17:01:52.037Z,88.42
2022-12-22T17:04:32.679Z,88.32
2022-12-22T17:07:02.402Z,88.42
2022-12-22T17:09:45.664Z,88.30
2022-12-22T17:12:24.992Z,88.43
2022-12-22T17:14:54.537Z,88.31
2022-12-22T17:17:30.872Z,88.17
2022-12-22T17:20:01.285Z,87.94
2022-12-22T17:22:33.555Z,88.08
2022-12-22T17:25:05.702Z,87.84
2022-12-22T17:27:34.928Z,87.70
2022-12-22T17:30:04.317Z,87.68
2022-12-22T17:32:32.227Z,87.03
2022-12-22T17:34:59.802Z,86.87
2022-12-22T17:37:27.731Z,86.54
2022-12-22T17:40:01.669Z,86.78
2022-12-22T17:42:32.014Z,87.29
2022-12-22T17:44:59.662Z,86.88
2022-12-22T17:47:33.238Z,87.55
2022-12-22T17:50:04.040Z,87.76
2022-12-22T17:52:32.496Z,88.08
2022-12-22T17:55:00.492Z,88.54
2022-12-22T17:57:34.763Z,88.34
2022-12-22T18:00:02.885Z,88.79
2022-12-22T18:02:39.676Z,89.22
2022-12-22T18:05:16.338Z,89.71
2022-12-22T18:07:45.542Z,90.01
2022-12-22T18:10:28.529Z,89.53
2022-12-22T18:12:59.332Z,89.38
2022-12-22T18:15:29.708Z,89.26
2022-12-22T18:17:57.975Z,89.02
2022-12-22T18:20:27.492Z,88.77
2022-12-22T18:23:02.301Z,87.98
2022-12-22T18:25:33.396Z,87.70
2022-12-22T18:28:01.372Z,87.64
2022-12-22T18:30:30.238Z,87.49
2022-12-22T18:32:58.107Z,87.33
2022-12-22T18:35:29.266Z,86.82
2022-12-22T18:37:58.076Z,86.48
2022-12-22T18:40:36.966Z,86.27
2022-12-22T18:43:12.808Z,85.90
2022-12-22T18:45:40.768Z,85.53
2022-12-22T18:48:09.619Z,84.97
2022-12-22T18:50:37.354Z,84.68
2022-12-22T18:53:28.401Z,84.47
2022-12-22T18:55:56.919Z,84.27
2022-12-22T18:58:25.938Z,84.12
2022-12-22T19:00:56.041Z,84.04
2022-12-22T19:03:29.509Z,84.32
2022-12-22T19:05:58.290Z,84.27
2022-12-22T19:08:28.681Z,84.52
2022-12-22T19:11:00.571Z,84.66
2022-12-22T19:13:44.275Z,84.45
2022-12-22T19:16:19.182Z,84.60
2022-12-22T19:18:47.164Z,84.49
2022-12-22T19:21:17.701Z,84.42
2022-12-22T19:23:46.130Z,84.43
2022-12-22T19:26:27.279Z,84.83
2022-12-22T19:29:00.722Z,84.54
2022-12-22T19:31:33.091Z,84.97
2022-12-22T19:34:05.664Z,84.88
2022-12-22T19:36:33.479Z,84.96
2022-12-22T19:39:05.004Z,84.32
2022-12-22T19:41:58.849Z,84.76
2022-12-22T19:44:30.661Z,84.38
2022-12-22T19:47:01.765Z,84.45
2022-12-22T19:49:30.192Z,84.16
2022-12-22T19:51:58.074Z,84.20
2022-12-22T19:54:26.123Z,84.73
2022-12-22T19:56:56.662Z,84.66
2022-12-22T19:59:39.951Z,85.02
2022-12-22T20:02:30.646Z,85.39
2022-12-22T20:04:59.756Z,85.58
2022-12-22T20:07:30.564Z,85.42
2022-12-22T20:09:58.601Z,85.40
2022-12-22T20:12:36.476Z,86.03
2022-12-22T20:15:20.048Z,86.16
2022-12-22T20:17:50.330Z,86.52
2022-12-22T20:20:25.467Z,86.89
2022-12-22T20:22:56.853Z,87.00
2022-12-22T20:25:28.143Z,87.02
2022-12-22T20:27:56.816Z,87.23
2022-12-22T20:30:30.368Z,87.20
2022-12-22T20:32:57.925Z,87.22
2022-12-22T20:35:26.095Z,87.37
2022-12-22T20:37:53.775Z,87.51
2022-12-22T20:40:30.021Z,87.70
2022-12-22T20:42:58.719Z,87.63
2022-12-22T20:45:31.365Z,87.55
2022-12-22T20:48:00.325Z,87.84
2022-12-22T20:50:34.603Z,87.55
2022-12-22T20:53:02.621Z,87.25
2022-12-22T20:55:31.133Z,87.79
2022-12-22T20:57:58.729Z,87.90
2022-12-22T21:00:29.187Z,88.26
2022-12-22T21:02:57.566Z,88.34
2022-12-22T21:05:25.895Z,88.78
2022-12-22T21:07:53.498Z,88.54
2022-12-22T21:10:26.429Z,88.26
2022-12-22T21:12:54.931Z,88.24
2022-12-22T21:15:28.228Z,88.47
2022-12-22T21:17:58.902Z,88.42
2022-12-22T21:20:29.707Z,88.48
2022-12-22T21:22:57.562Z,88.46
2022-12-22T21:25:26.102Z,88.53
2022-12-22T21:27:55.081Z,88.78
2022-12-22T21:30:27.986Z,88.55
2022-12-22T21:32:57.408Z,88.96
2022-12-22T21:35:34.065Z,88.86
2022-12-22T21:38:02.585Z,89.21
2022-12-22T21:40:32.977Z,88.92
2022-12-22T21:43:00.957Z,89.01
2022-12-22T21:45:31.798Z,89.19
2022-12-22T21:48:01.064Z,89.13
2022-12-22T21:50:34.973Z,89.36
2022-12-22T21:53:02.938Z,89.58
2022-12-22T21:55:37.178Z,88.53
2022-12-22T21:58:07.535Z,88.27
2022-12-22T22:00:35.821Z,88.53
2022-12-22T22:03:04.603Z,88.24
2022-12-22T22:05:38.362Z,89.08
2022-12-22T22:08:09.902Z,89.26
2022-12-22T22:10:41.484Z,89.46
2022-12-22T22:13:15.620Z,88.80
2022-12-22T22:15:43.699Z,88.96
2022-12-22T22:18:19.778Z,89.61
2022-12-22T22:20:48.004Z,89.57
2022-12-22T22:23:15.906Z,89.75
2022-12-22T22:25:43.573Z,89.74
2022-12-22T22:28:12.274Z,90.03
2022-12-22T22:30:42.104Z,90.16
2022-12-22T22:33:10.721Z,90.12
2022-12-22T22:35:40.612Z,90.93
2022-12-22T22:38:13.492Z,90.96
2022-12-22T22:40:44.431Z,91.11
2022-12-22T22:43:14.185Z,91.23
2022-12-22T22:45:42.421Z,91.24
2022-12-22T22:48:21.257Z,91.53
2022-12-22T22:50:50.229Z,91.57
2022-12-22T22:53:18.590Z,92.15
2022-12-22T22:55:46.183Z,92.29
2022-12-22T22:58:15.237Z,91.99
2022-12-22T23:00:42.839Z,92.63
2022-12-22T23:03:10.858Z,92.73
2022-12-22T23:05:38.561Z,92.63
2022-12-22T23:08:06.409Z,92.58
2022-12-22T23:10:41.157Z,92.47
2022-12-22T23:13:09.740Z,92.68
2022-12-22T23:15:37.343Z,92.36
2022-12-22T23:18:05.266Z,92.53
2022-12-22T23:20:32.793Z,92.36
2022-12-22T23:23:00.619Z,91.79
2022-12-22T23:25:28.272Z,92.10
2022-12-22T23:27:56.102Z,92.20
2022-12-22T23:30:23.715Z,92.02
2022-12-22T23:32:51.745Z,92.03
2022-12-22T23:35:19.333Z,92.03
2022-12-22T23:37:47.389Z,91.09
2022-12-22T23:40:50.306Z,90.59
2022-12-22T23:43:04.237Z,91.14
2022-12-22T23:45:33.012Z,91.16
2022-12-22T23:48:00.917Z,91.15
2022-12-22T23:50:28.519Z,91.33
2022-12-22T23:52:56.496Z,91.98
2022-12-22T23:55:24.172Z,92.40
2022-12-22T23:57:53.359Z,92.24
